Time;durP1;ratioP1;P1;durP2;ratioP2;P2;SDS_P1;SDS_P2;PMS_P1;PMS_P2;Temp;Humidity;BMP_temperature;BMP_pressure;BME280_temperature;BME280_humidity;BME280_pressure;Samples;Min_cycle;Max_cycle;Signal;HPM_P1;HPM_P2
2022/08/07 00:01:10;;;;;;;11.80;10.70;;;16.60;99.90;;;;;;5052914;28;20041;-71
2022/08/07 00:03:41;;;;;;;11.55;10.55;;;16.70;99.90;;;;;;5050653;28;20045;-70
2022/08/07 00:06:13;;;;;;;12.93;11.73;;;16.60;99.90;;;;;;5048505;28;20451;-71
2022/08/07 00:08:45;;;;;;;13.77;12.20;;;16.60;99.90;;;;;;5036937;28;20065;-71
2022/08/07 00:11:17;;;;;;;13.88;12.48;;;16.60;99.90;;;;;;5047034;28;20033;-71
2022/08/07 00:13:49;;;;;;;15.25;12.18;;;16.60;99.90;;;;;;5052913;28;20265;-71
2022/08/07 00:16:22;;;;;;;13.43;12.13;;;16.60;99.90;;;;;;5051172;28;20041;-71
2022/08/07 00:18:53;;;;;;;13.05;11.73;;;16.60;99.90;;;;;;5046195;28;20045;-71
2022/08/07 00:21:25;;;;;;;13.75;12.45;;;16.50;99.90;;;;;;5044212;28;20037;-71
2022/08/07 00:23:57;;;;;;;14.90;12.70;;;16.60;99.90;;;;;;5032632;28;20491;-71
2022/08/07 00:26:29;;;;;;;14.93;13.43;;;16.50;99.90;;;;;;5028681;28;20059;-71
2022/08/07 00:29:00;;;;;;;15.27;13.65;;;16.50;99.90;;;;;;5040985;28;20053;-72
2022/08/07 00:31:33;;;;;;;14.95;13.65;;;16.50;99.90;;;;;;5045308;28;20128;-71
2022/08/07 00:34:05;;;;;;;13.98;12.68;;;16.40;99.90;;;;;;5020891;28;20045;-71
2022/08/07 00:36:37;;;;;;;14.70;12.90;;;16.50;99.90;;;;;;5020240;28;20041;-70
2022/08/07 00:39:11;;;;;;;13.68;12.38;;;16.40;99.90;;;;;;5038935;28;20053;-72
2022/08/07 00:41:51;;;;;;;12.95;11.75;;;16.40;99.90;;;;;;5030907;28;20519;-72
2022/08/07 00:44:23;;;;;;;14.00;12.40;;;16.40;99.90;;;;;;5041356;28;20047;-71
2022/08/07 00:46:55;;;;;;;13.40;11.68;;;16.40;99.90;;;;;;5045859;28;20051;-72
2022/08/07 00:49:27;;;;;;;14.35;12.95;;;16.40;99.90;;;;;;5041513;28;20045;-73
2022/08/07 00:51:59;;;;;;;15.30;13.65;;;16.30;99.90;;;;;;5042574;28;20037;-71
2022/08/07 00:54:31;;;;;;;12.73;11.55;;;16.30;99.90;;;;;;5036817;28;20395;-72
2022/08/07 00:57:04;;;;;;;13.18;11.98;;;16.30;99.90;;;;;;5042378;28;20396;-72
2022/08/07 00:59:36;;;;;;;;;;;16.20;99.90;;;;;;5038346;28;20041;-70
2022/08/07 01:02:09;;;;;;;14.00;12.70;;;16.20;99.90;;;;;;5041572;28;20027;-70
2022/08/07 01:04:41;;;;;;;14.55;13.05;;;16.20;99.90;;;;;;5034464;28;20045;-70
2022/08/07 01:07:13;;;;;;;15.55;13.57;;;16.20;99.90;;;;;;5042596;28;20049;-73
2022/08/07 01:09:45;;;;;;;14.73;12.73;;;16.10;99.90;;;;;;5034201;28;20041;-71
2022/08/07 01:12:17;;;;;;;14.70;13.13;;;16.10;99.90;;;;;;5046461;28;20508;-71
2022/08/07 01:14:49;;;;;;;14.27;12.90;;;16.10;99.90;;;;;;5037722;28;20111;-71
2022/08/07 01:17:21;;;;;;;13.77;12.38;;;16.10;99.90;;;;;;5043964;28;20045;-70
2022/08/07 01:19:55;;;;;;;13.55;12.13;;;16.20;99.90;;;;;;5042033;28;20045;-71
2022/08/07 01:22:27;;;;;;;13.43;12.02;;;16.10;99.90;;;;;;5043231;28;20041;-70
2022/08/07 01:25:00;;;;;;;15.25;12.98;;;16.10;99.90;;;;;;5036341;28;20041;-71
2022/08/07 01:27:31;;;;;;;14.23;12.93;;;16.10;99.90;;;;;;5033671;28;20068;-71
2022/08/07 01:30:05;;;;;;;12.67;11.37;;;16.10;99.90;;;;;;5046941;28;20072;-71
2022/08/07 01:32:38;;;;;;;11.52;10.52;;;16.10;99.90;;;;;;5037330;28;20061;-70
2022/08/07 01:35:10;;;;;;;11.52;10.32;;;16.10;99.90;;;;;;5043532;28;20083;-71
2022/08/07 01:37:42;;;;;;;10.73;9.73;;;16.10;99.90;;;;;;5034720;28;20511;-70
2022/08/07 01:40:19;;;;;;;11.35;10.10;;;16.10;99.90;;;;;;5039307;28;20049;-71
2022/08/07 01:42:55;;;;;;;12.40;11.07;;;16.10;99.90;;;;;;5045219;28;20163;-70
2022/08/07 01:45:31;;;;;;;11.32;10.32;;;16.00;99.90;;;;;;5040930;28;20127;-71
2022/08/07 01:48:06;;;;;;;10.23;9.27;;;16.00;99.90;;;;;;5038483;28;20033;-70
2022/08/07 01:50:39;;;;;;;11.05;9.95;;;16.00;99.90;;;;;;5040789;28;20072;-71
2022/08/07 01:53:13;;;;;;;10.98;9.90;;;16.00;99.90;;;;;;5042254;28;20050;-70
2022/08/07 01:55:49;;;;;;;9.80;8.90;;;16.00;99.90;;;;;;5045162;28;20068;-71
2022/08/07 01:58:22;;;;;;;10.32;9.35;;;16.00;99.90;;;;;;5039341;28;20123;-71
2022/08/07 02:00:59;;;;;;;11.23;10.23;;;16.10;99.90;;;;;;5041848;28;20079;-70
2022/08/07 02:03:39;;;;;;;10.60;9.60;;;16.00;99.90;;;;;;5045226;28;20068;-70
2022/08/07 02:06:16;;;;;;;10.98;9.88;;;16.00;99.90;;;;;;5032831;28;20038;-70
2022/08/07 02:08:48;;;;;;;10.93;9.93;;;16.00;99.90;;;;;;5024396;28;20124;-70
2022/08/07 02:11:24;;;;;;;11.20;10.20;;;15.90;99.90;;;;;;5042607;28;20049;-71
2022/08/07 02:13:58;;;;;;;;;;;15.90;99.90;;;;;;5045397;28;20515;-70
2022/08/07 02:16:34;;;;;;;11.10;10.10;;;15.80;99.90;;;;;;5038822;28;19927;-72
2022/08/07 02:19:10;;;;;;;10.68;9.68;;;15.90;99.90;;;;;;5018946;28;20361;-71
2022/08/07 02:21:44;;;;;;;11.93;10.57;;;15.90;99.90;;;;;;5074263;22;20048;-72
2022/08/07 02:24:16;;;;;;;;;;;15.90;99.90;;;;;;5044528;28;20051;-71
2022/08/07 02:26:49;;;;;;;11.95;10.80;;;15.90;99.90;;;;;;5052049;28;20366;-70
2022/08/07 02:29:21;;;;;;;12.73;11.63;;;15.90;99.90;;;;;;5056560;28;20087;-72
2022/08/07 02:31:53;;;;;;;13.27;11.98;;;15.90;99.90;;;;;;5049675;28;20580;-72
2022/08/07 02:34:27;;;;;;;13.48;12.27;;;15.90;99.90;;;;;;5048580;28;20653;-71
2022/08/07 02:37:02;;;;;;;12.10;10.80;;;15.90;99.90;;;;;;5049229;28;20103;-71
2022/08/07 02:39:38;;;;;;;13.85;12.55;;;15.90;99.90;;;;;;5023129;28;20132;-71
2022/08/07 02:42:16;;;;;;;15.70;14.13;;;15.90;99.90;;;;;;5046115;28;20411;-71
2022/08/07 02:44:51;;;;;;;17.00;15.10;;;16.00;99.90;;;;;;5030095;28;20398;-71
2022/08/07 02:47:24;;;;;;;18.00;15.82;;;16.00;99.90;;;;;;5049101;28;20518;-71
2022/08/07 02:50:05;;;;;;;17.48;15.70;;;16.00;99.90;;;;;;5049015;28;20045;-71
2022/08/07 02:52:50;;;;;;;15.68;14.18;;;16.00;99.90;;;;;;5018629;28;20542;-72
2022/08/07 02:55:25;;;;;;;17.85;15.32;;;16.00;99.90;;;;;;5049662;28;20419;-71
2022/08/07 02:58:02;;;;;;;17.20;15.60;;;16.00;99.90;;;;;;5049199;28;20065;-71
2022/08/07 03:00:37;;;;;;;16.83;15.15;;;16.00;99.90;;;;;;5062352;28;20041;-71
2022/08/07 03:03:10;;;;;;;16.65;15.10;;;16.10;99.90;;;;;;5041046;28;20041;-71
2022/08/07 03:05:45;;;;;;;18.63;15.60;;;16.10;99.90;;;;;;5065364;28;20578;-71
2022/08/07 03:08:19;;;;;;;16.35;14.63;;;16.10;99.90;;;;;;5052554;28;20151;-71
2022/08/07 03:10:53;;;;;;;15.45;13.95;;;16.20;99.90;;;;;;5049672;28;20529;-71
2022/08/07 03:13:31;;;;;;;15.48;13.77;;;16.20;99.90;;;;;;5049851;28;20095;-71
2022/08/07 03:16:03;;;;;;;16.02;14.43;;;16.10;99.90;;;;;;5053352;28;20044;-71
2022/08/07 03:18:37;;;;;;;16.45;14.82;;;16.10;99.90;;;;;;5036965;28;20045;-71
2022/08/07 03:21:10;;;;;;;16.65;15.05;;;16.20;99.90;;;;;;5035830;28;20061;-71
2022/08/07 03:23:43;;;;;;;15.57;14.02;;;16.20;99.90;;;;;;5035813;28;20040;-71
2022/08/07 03:26:18;;;;;;;16.77;14.98;;;16.20;99.90;;;;;;5052407;28;20052;-72
2022/08/07 03:28:54;;;;;;;16.38;14.73;;;16.10;99.90;;;;;;5052564;28;20048;-70
2022/08/07 03:31:28;;;;;;;16.83;15.13;;;16.10;99.90;;;;;;5035588;28;20043;-71
2022/08/07 03:34:01;;;;;;;17.50;15.70;;;16.10;99.90;;;;;;5052407;28;20059;-71
2022/08/07 03:36:33;;;;;;;16.17;14.68;;;16.10;99.90;;;;;;5052313;28;20052;-71
2022/08/07 03:39:07;;;;;;;;;;;16.10;99.90;;;;;;5052876;28;20053;-71
2022/08/07 03:41:40;;;;;;;15.90;14.25;;;16.00;99.90;;;;;;5050126;28;19921;-71
2022/08/07 03:44:12;;;;;;;15.90;14.30;;;16.00;99.90;;;;;;5051253;28;20033;-71
2022/08/07 03:46:44;;;;;;;16.75;15.05;;;16.00;99.90;;;;;;5036725;28;20065;-71
2022/08/07 03:49:16;;;;;;;17.40;15.35;;;16.00;99.90;;;;;;5052408;28;20041;-71
2022/08/07 03:51:50;;;;;;;15.50;13.90;;;16.00;99.90;;;;;;5047831;28;20045;-71
2022/08/07 03:54:22;;;;;;;15.68;14.07;;;16.00;99.90;;;;;;5051692;28;20055;-71
2022/08/07 03:56:56;;;;;;;15.70;14.10;;;15.90;99.90;;;;;;5065363;28;20060;-72
2022/08/07 03:59:28;;;;;;;15.27;13.77;;;15.90;99.90;;;;;;5035936;28;20051;-71
2022/08/07 04:02:00;;;;;;;15.90;14.23;;;15.90;99.90;;;;;;5062030;28;20053;-71
2022/08/07 04:04:33;;;;;;;16.97;14.47;;;15.90;99.90;;;;;;5051544;28;20466;-71
2022/08/07 04:07:07;;;;;;;16.52;14.30;;;15.90;99.90;;;;;;5048344;28;20349;-71
2022/08/07 04:09:39;;;;;;;15.95;14.45;;;15.90;99.90;;;;;;5051915;28;20127;-72
2022/08/07 04:12:06;;;;;;;15.02;13.52;;;15.80;99.90;;;;;;5048912;28;20042;-71
2022/08/07 04:14:39;;;;;;;14.90;13.40;;;15.80;99.90;;;;;;5035063;28;20060;-71
2022/08/07 04:17:13;;;;;;;26.48;15.73;;;15.80;99.90;;;;;;5036054;28;20041;-71
2022/08/07 04:19:44;;;;;;;16.60;14.90;;;15.80;99.90;;;;;;5035849;28;20191;-71
2022/08/07 04:22:18;;;;;;;15.73;13.88;;;15.70;99.90;;;;;;5050521;28;20048;-71
2022/08/07 04:24:51;;;;;;;15.50;13.85;;;15.70;99.90;;;;;;5051075;28;20423;-71
2022/08/07 04:27:23;;;;;;;15.45;13.85;;;15.70;99.90;;;;;;5035633;28;20049;-70
2022/08/07 04:29:58;;;;;;;16.88;14.18;;;15.80;99.90;;;;;;5033347;28;20065;-70
2022/08/07 04:32:39;;;;;;;14.98;13.38;;;15.70;99.90;;;;;;5050160;28;20045;-71
2022/08/07 04:35:12;;;;;;;16.10;13.45;;;15.80;99.90;;;;;;5050965;28;20487;-71
2022/08/07 04:37:46;;;;;;;14.68;13.25;;;15.80;99.90;;;;;;5051187;28;20052;-71
2022/08/07 04:40:19;;;;;;;14.90;13.48;;;15.80;99.90;;;;;;5055259;28;20076;-71
2022/08/07 04:42:51;;;;;;;14.68;13.27;;;15.80;99.90;;;;;;5055878;28;20044;-71
2022/08/07 04:45:33;;;;;;;17.20;13.52;;;15.90;99.90;;;;;;5053580;28;20033;-71
2022/08/07 04:48:40;;;;;;;14.63;13.07;;;15.90;99.90;;;;;;5048139;28;20406;-71
2022/08/07 04:51:48;;;;;;;15.30;13.70;;;15.90;99.90;;;;;;5044681;28;20163;-71
2022/08/07 04:54:48;;;;;;;15.15;13.02;;;16.00;99.90;;;;;;5009141;28;20376;-71
2022/08/07 04:57:51;;;;;;;14.13;12.73;;;16.00;99.90;;;;;;5023829;28;20127;-71
2022/08/07 05:00:50;;;;;;;14.68;13.18;;;16.00;99.90;;;;;;5050735;28;20454;-71
2022/08/07 05:03:34;;;;;;;14.43;12.93;;;16.00;99.90;;;;;;5044684;28;20048;-70
2022/08/07 05:06:11;;;;;;;15.23;13.52;;;16.00;99.90;;;;;;5049989;28;20044;-71
2022/08/07 05:08:49;;;;;;;15.05;13.45;;;15.90;99.90;;;;;;5050511;28;20535;-71
2022/08/07 05:11:29;;;;;;;14.10;12.40;;;15.90;99.90;;;;;;5046790;28;20072;-71
2022/08/07 05:14:10;;;;;;;14.05;12.55;;;15.90;99.90;;;;;;5050531;28;20041;-71
2022/08/07 05:16:46;;;;;;;14.63;12.98;;;15.90;99.90;;;;;;5050547;28;20045;-72
2022/08/07 05:19:19;;;;;;;16.85;14.02;;;15.90;99.90;;;;;;5022872;28;20045;-70
2022/08/07 05:21:54;;;;;;;14.32;12.68;;;15.90;99.90;;;;;;5033113;28;20045;-71
2022/08/07 05:24:28;;;;;;;17.42;15.63;;;15.90;99.90;;;;;;5047325;28;20053;-71
2022/08/07 05:27:01;;;;;;;15.70;14.20;;;15.90;99.90;;;;;;5033855;28;20037;-71
2022/08/07 05:29:37;;;;;;;14.63;13.15;;;15.90;99.90;;;;;;5050097;28;20041;-72
2022/08/07 05:32:10;;;;;;;14.93;12.70;;;16.00;99.90;;;;;;5048563;28;20056;-71
2022/08/07 05:34:44;;;;;;;14.25;12.70;;;16.00;99.90;;;;;;5044033;28;20137;-71
2022/08/07 05:37:19;;;;;;;16.05;12.73;;;16.00;99.90;;;;;;5050189;28;20045;-71
2022/08/07 05:39:56;;;;;;;15.25;13.25;;;16.00;99.90;;;;;;5050108;28;20041;-71
2022/08/07 05:42:29;;;;;;;14.73;13.23;;;16.00;99.90;;;;;;5062121;28;20048;-71
2022/08/07 05:45:05;;;;;;;14.00;12.70;;;16.10;99.90;;;;;;5049648;28;20093;-71
2022/08/07 05:47:38;;;;;;;16.35;14.13;;;16.10;99.90;;;;;;5046341;28;20044;-70
2022/08/07 05:50:10;;;;;;;16.45;13.93;;;16.10;99.90;;;;;;5055028;28;20414;-70
2022/08/07 05:52:42;;;;;;;15.20;12.88;;;16.10;99.90;;;;;;5019397;28;20759;-70
2022/08/07 05:55:14;;;;;;;17.38;13.10;;;16.20;99.90;;;;;;5060387;28;20137;-71
2022/08/07 05:57:47;;;;;;;12.93;11.63;;;16.20;99.90;;;;;;5049439;28;20086;-70
2022/08/07 06:00:19;;;;;;;13.55;11.93;;;16.20;99.90;;;;;;5051266;28;20045;-70
2022/08/07 06:03:00;;;;;;;12.77;11.48;;;16.20;99.90;;;;;;5030964;28;20033;-70
2022/08/07 06:05:33;;;;;;;13.35;11.98;;;16.20;99.90;;;;;;5063956;28;20041;-71
2022/08/07 06:08:08;;;;;;;14.00;11.55;;;16.20;99.90;;;;;;5033410;28;20033;-72
2022/08/07 06:10:41;;;;;;;;;;;16.20;99.90;;;;;;5032815;28;20037;-71
2022/08/07 06:13:13;;;;;;;13.20;11.07;;;16.20;99.90;;;;;;5048350;28;21429;-71
2022/08/07 06:15:47;;;;;;;11.35;10.23;;;16.20;99.90;;;;;;5029512;28;20132;-70
2022/08/07 06:18:24;;;;;;;14.85;10.45;;;16.30;99.90;;;;;;5047638;28;20045;-71
2022/08/07 06:20:56;;;;;;;11.10;9.35;;;16.20;99.90;;;;;;5030208;28;20095;-70
2022/08/07 06:23:29;;;;;;;9.85;8.77;;;16.30;99.90;;;;;;5032922;28;20061;-72
2022/08/07 06:26:02;;;;;;;9.18;8.18;;;16.30;99.90;;;;;;5055278;28;20045;-73
2022/08/07 06:28:47;;;;;;;9.13;8.23;;;16.30;99.90;;;;;;5030103;28;20533;-73
2022/08/07 06:31:20;;;;;;;8.82;7.97;;;16.40;99.90;;;;;;5045032;28;20033;-74
2022/08/07 06:33:54;;;;;;;8.27;7.03;;;16.50;99.90;;;;;;5046457;28;20041;-72
2022/08/07 06:36:26;;;;;;;8.00;6.75;;;16.50;99.90;;;;;;5041897;28;20135;-73
2022/08/07 06:38:56;;;;;;;7.10;6.50;;;16.60;99.90;;;;;;5054728;28;20414;-73
2022/08/07 06:41:41;;;;;;;;;;;16.70;99.90;;;;;;5049626;28;20048;-72
2022/08/07 06:44:14;;;;;;;6.93;6.25;;;16.80;99.90;;;;;;5044853;28;19921;-73
2022/08/07 06:46:46;;;;;;;;;;;16.90;99.90;;;;;;5054112;28;20099;-73
2022/08/07 06:49:18;;;;;;;5.78;5.18;;;16.90;99.90;;;;;;5053813;28;20404;-73
2022/08/07 06:51:52;;;;;;;8.32;5.75;;;17.00;99.90;;;;;;5049104;28;20120;-73
2022/08/07 06:54:25;;;;;;;6.93;5.00;;;17.20;99.90;;;;;;5046343;28;20681;-72
2022/08/07 06:56:59;;;;;;;4.45;4.05;;;17.20;99.90;;;;;;5053676;28;20041;-73
2022/08/07 06:59:39;;;;;;;5.22;4.70;;;17.30;99.90;;;;;;5053601;28;20049;-72
2022/08/07 07:02:20;;;;;;;5.07;4.57;;;17.40;99.90;;;;;;5051987;28;20037;-72
2022/08/07 07:04:53;;;;;;;4.05;3.65;;;17.50;99.90;;;;;;5052930;28;20041;-73
2022/08/07 07:07:24;;;;;;;4.35;3.95;;;17.60;99.90;;;;;;5054312;28;20041;-73
2022/08/07 07:09:56;;;;;;;5.15;3.65;;;17.70;99.90;;;;;;5046191;28;20607;-72
2022/08/07 07:12:45;;;;;;;4.20;3.80;;;17.80;99.90;;;;;;5025098;28;20132;-72
2022/08/07 07:15:14;;;;;;;4.82;3.28;;;17.90;99.90;;;;;;5028057;28;20985;-72
2022/08/07 07:17:59;;;;;;;3.42;3.13;;;18.00;99.90;;;;;;5054037;28;20059;-73
2022/08/07 07:20:35;;;;;;;3.58;3.28;;;18.20;99.90;;;;;;5052561;28;20060;-73
2022/08/07 07:23:08;;;;;;;4.13;3.63;;;18.20;99.90;;;;;;5065866;28;20056;-72
2022/08/07 07:25:43;;;;;;;3.20;2.80;;;18.30;99.90;;;;;;5067725;28;20044;-73
2022/08/07 07:28:22;;;;;;;3.88;3.47;;;18.30;99.90;;;;;;5053867;28;20037;-72
2022/08/07 07:31:06;;;;;;;3.70;3.08;;;18.30;99.90;;;;;;5067546;28;20041;-73
2022/08/07 07:33:40;;;;;;;3.35;3.05;;;18.40;99.90;;;;;;5072862;28;20030;-73
2022/08/07 07:36:13;;;;;;;3.58;3.05;;;18.50;99.90;;;;;;5045709;28;20076;-73
2022/08/07 07:38:45;;;;;;;3.80;3.35;;;18.60;99.90;;;;;;5052735;28;20056;-73
2022/08/07 07:41:21;;;;;;;3.70;3.40;;;18.60;99.90;;;;;;5051910;28;20055;-73
2022/08/07 07:43:53;;;;;;;3.33;3.00;;;18.70;99.90;;;;;;5051985;28;20049;-72
2022/08/07 07:46:26;;;;;;;3.47;3.17;;;18.90;99.90;;;;;;5065692;28;20044;-73
2022/08/07 07:48:59;;;;;;;3.65;2.78;;;19.00;99.90;;;;;;5053875;28;20037;-72
2022/08/07 07:51:32;;;;;;;4.03;3.10;;;19.10;99.90;;;;;;5039644;28;20064;-74
2022/08/07 07:54:06;;;;;;;7.30;2.80;;;19.20;99.90;;;;;;5052374;28;20037;-73
2022/08/07 07:56:39;;;;;;;5.22;3.13;;;19.30;99.90;;;;;;5059916;28;20549;-73
2022/08/07 07:59:12;;;;;;;3.30;3.00;;;19.30;99.90;;;;;;5052453;28;20087;-73
2022/08/07 08:01:45;;;;;;;4.18;2.75;;;19.40;99.90;;;;;;5044989;28;20131;-74
2022/08/07 08:04:19;;;;;;;3.53;3.22;;;19.50;99.90;;;;;;5056429;28;20041;-71
2022/08/07 08:06:52;;;;;;;4.90;3.45;;;19.50;99.90;;;;;;5045441;28;20041;-74
2022/08/07 08:09:25;;;;;;;3.35;2.55;;;19.60;99.90;;;;;;5061583;28;20064;-70
2022/08/07 08:11:58;;;;;;;3.88;3.38;;;19.60;99.90;;;;;;5048187;28;20060;-73
2022/08/07 08:14:34;;;;;;;3.20;2.90;;;19.70;99.90;;;;;;5051837;28;20091;-72
2022/08/07 08:17:08;;;;;;;3.13;2.80;;;19.80;99.90;;;;;;5066578;28;20095;-71
2022/08/07 08:19:41;;;;;;;2.90;2.70;;;19.90;99.90;;;;;;5048560;28;20049;-71
2022/08/07 08:27:56;;;;;;;4.22;2.65;;;20.30;99.90;;;;;;5066227;28;20056;-71
2022/08/07 08:30:29;;;;;;;3.05;2.85;;;20.30;99.90;;;;;;5041579;28;20041;-71
2022/08/07 08:33:02;;;;;;;;;;;20.40;99.90;;;;;;5049908;22;20077;-72
2022/08/07 08:35:36;;;;;;;4.27;2.90;;;20.50;99.90;;;;;;5043541;28;19921;-71
2022/08/07 08:38:11;;;;;;;3.30;3.00;;;20.50;99.90;;;;;;5043058;28;20053;-71
2022/08/07 08:41:25;;;;;;;3.17;2.88;;;20.60;99.90;;;;;;5042964;28;20042;-71
2022/08/07 08:44:07;;;;;;;3.30;3.00;;;20.60;99.90;;;;;;5019480;28;20042;-71
2022/08/07 08:46:49;;;;;;;7.18;3.00;;;20.70;99.90;;;;;;5025787;28;20069;-71
2022/08/07 08:49:58;;;;;;;6.60;3.20;;;20.80;99.90;;;;;;4998812;28;20053;-71
2022/08/07 08:52:38;;;;;;;5.40;3.20;;;20.90;99.90;;;;;;5018491;28;20048;-71
2022/08/07 08:55:34;;;;;;;4.25;3.50;;;21.00;99.90;;;;;;5007813;28;20049;-71
2022/08/07 08:58:13;;;;;;;4.93;3.47;;;20.90;99.90;;;;;;5020174;28;20045;-71
2022/08/07 09:00:53;;;;;;;3.75;2.80;;;20.80;99.90;;;;;;5021162;28;20037;-71
2022/08/07 09:03:54;;;;;;;3.63;3.17;;;20.80;99.90;;;;;;5019818;28;20050;-71
2022/08/07 09:06:50;;;;;;;5.80;3.17;;;20.90;99.90;;;;;;5039913;28;20041;-71
2022/08/07 09:09:53;;;;;;;3.75;3.45;;;21.30;99.90;;;;;;5027796;28;20037;-72
2022/08/07 09:12:49;;;;;;;3.47;3.15;;;21.70;99.90;;;;;;5018299;28;20044;-71
2022/08/07 09:15:58;;;;;;;3.78;3.42;;;21.90;99.90;;;;;;5022891;28;20050;-71
2022/08/07 09:19:10;;;;;;;3.28;2.92;;;22.00;99.90;;;;;;5025904;28;20042;-71
2022/08/07 09:22:03;;;;;;;3.63;2.72;;;22.10;99.90;;;;;;5023522;28;20050;-71
2022/08/07 09:24:38;;;;;;;4.45;2.42;;;22.20;99.90;;;;;;5023685;28;20041;-72
2022/08/07 09:27:41;;;;;;;3.67;2.53;;;22.30;99.90;;;;;;5021926;28;20052;-71
2022/08/07 09:30:13;;;;;;;3.65;2.58;;;22.40;99.90;;;;;;5011616;28;20144;-71
2022/08/07 09:32:50;;;;;;;3.33;3.03;;;22.40;99.90;;;;;;5023673;28;20085;-72
2022/08/07 09:35:41;;;;;;;2.60;2.40;;;22.50;99.90;;;;;;5011846;28;20048;-72
2022/08/07 09:38:19;;;;;;;2.80;2.55;;;22.40;99.90;;;;;;5023827;28;20060;-71
2022/08/07 09:41:13;;;;;;;4.03;3.20;;;22.40;99.90;;;;;;5024717;28;20136;-71
2022/08/07 09:44:00;;;;;;;4.70;3.08;;;22.30;99.90;;;;;;5036500;28;20484;-71
2022/08/07 09:47:08;;;;;;;4.78;3.20;;;22.30;99.90;;;;;;5022447;28;20052;-71
2022/08/07 09:50:05;;;;;;;2.80;2.50;;;22.30;99.90;;;;;;4988076;28;20049;-71
2022/08/07 09:52:44;;;;;;;4.95;2.97;;;22.40;99.90;;;;;;5003548;28;20415;-71
2022/08/07 09:55:36;;;;;;;4.30;2.58;;;22.50;99.90;;;;;;5022442;28;20411;-72
2022/08/07 09:58:39;;;;;;;2.47;2.27;;;22.50;99.90;;;;;;5024021;28;20048;-71
2022/08/07 10:01:34;;;;;;;3.17;2.88;;;22.60;99.90;;;;;;5023970;28;20041;-71
2022/08/07 10:04:32;;;;;;;2.63;2.30;;;22.70;99.90;;;;;;5021387;28;20052;-71
2022/08/07 10:07:41;;;;;;;3.47;2.30;;;22.80;99.90;;;;;;5032425;28;20059;-71
2022/08/07 10:10:46;;;;;;;3.05;2.17;;;22.70;99.90;;;;;;5023263;28;20042;-71
2022/08/07 10:13:36;;;;;;;2.58;2.20;;;22.80;99.90;;;;;;4989058;28;20053;-71
2022/08/07 10:16:44;;;;;;;2.60;2.40;;;22.90;99.90;;;;;;5026620;28;20045;-71
2022/08/07 10:19:25;;;;;;;2.60;2.03;;;23.00;99.90;;;;;;5010274;28;20124;-71
2022/08/07 10:22:19;;;;;;;3.63;2.20;;;23.20;99.90;;;;;;5024281;28;20038;-71
2022/08/07 10:25:09;;;;;;;2.38;2.10;;;23.20;99.90;;;;;;5026652;28;20064;-71
2022/08/07 10:27:52;;;;;;;2.40;2.20;;;23.10;99.90;;;;;;5022193;28;20045;-71
2022/08/07 10:30:25;;;;;;;2.97;1.90;;;23.10;99.90;;;;;;5018223;28;20073;-71
2022/08/07 10:33:29;;;;;;;3.08;1.98;;;23.10;99.90;;;;;;5007417;28;20048;-71
2022/08/07 10:36:24;;;;;;;3.35;2.10;;;23.20;99.90;;;;;;5016470;28;20536;-71
2022/08/07 10:39:26;;;;;;;2.50;1.80;;;23.30;99.90;;;;;;5021841;28;20060;-71
2022/08/07 10:42:14;;;;;;;2.15;1.80;;;23.50;99.90;;;;;;5020372;28;20050;-71
2022/08/07 10:45:12;;;;;;;2.08;1.90;;;23.70;99.90;;;;;;5026259;28;20120;-71
2022/08/07 10:47:48;;;;;;;2.55;1.90;;;23.80;99.90;;;;;;5016330;28;20124;-72
2022/08/07 10:50:41;;;;;;;2.28;1.90;;;23.70;99.90;;;;;;5025249;28;20545;-72
2022/08/07 10:53:34;;;;;;;3.92;2.00;;;23.60;99.90;;;;;;5018188;28;20049;-72
2022/08/07 10:56:09;;;;;;;3.10;2.13;;;23.50;99.90;;;;;;5026756;28;20107;-72
2022/08/07 10:59:04;;;;;;;3.03;2.05;;;23.40;99.90;;;;;;5030143;28;20041;-72
2022/08/07 11:01:48;;;;;;;2.10;1.70;;;23.30;99.90;;;;;;5042831;28;20045;-72
2022/08/07 11:04:38;;;;;;;3.72;2.40;;;23.30;99.90;;;;;;5025272;28;20128;-72
2022/08/07 11:07:41;;;;;;;2.35;2.03;;;23.30;99.90;;;;;;5028667;28;20642;-72
2022/08/07 11:10:44;;;;;;;2.25;2.05;;;23.50;99.90;;;;;;5041453;28;20048;-72
2022/08/07 11:13:45;;;;;;;2.40;1.85;;;23.60;99.90;;;;;;5007497;28;20061;-71
2022/08/07 11:16:48;;;;;;;2.47;1.92;;;23.70;99.90;;;;;;5029441;28;20056;-71
2022/08/07 11:19:44;;;;;;;2.40;1.90;;;23.70;99.90;;;;;;5028873;28;20060;-71
2022/08/07 11:22:28;;;;;;;3.78;1.70;;;23.70;99.90;;;;;;5040666;28;20041;-71
2022/08/07 11:25:09;;;;;;;2.35;2.15;;;23.80;99.90;;;;;;5022463;28;20720;-71
2022/08/07 11:27:44;;;;;;;2.00;1.77;;;23.90;99.90;;;;;;5020445;28;20038;-71
2022/08/07 11:30:19;;;;;;;3.20;1.80;;;23.90;99.00;;;;;;5014965;28;20038;-71
2022/08/07 11:33:15;;;;;;;2.08;1.88;;;23.90;99.90;;;;;;5020750;28;20029;-71
2022/08/07 11:36:09;;;;;;;3.15;1.80;;;23.90;99.90;;;;;;5026527;28;20045;-71
2022/08/07 11:39:00;;;;;;;2.10;1.70;;;23.90;99.30;;;;;;5030563;28;20048;-71
2022/08/07 11:41:47;;;;;;;2.50;2.20;;;24.00;99.10;;;;;;5028653;28;20055;-71
2022/08/07 11:44:37;;;;;;;2.40;1.95;;;24.10;99.10;;;;;;5028298;28;20632;-71
2022/08/07 11:47:42;;;;;;;2.83;2.35;;;24.10;98.30;;;;;;5030103;28;20033;-71
2022/08/07 11:50:39;;;;;;;3.63;1.77;;;24.30;99.30;;;;;;4998057;28;20128;-71
2022/08/07 11:53:38;;;;;;;2.55;2.10;;;24.40;98.80;;;;;;5025431;28;20069;-71
2022/08/07 11:56:30;;;;;;;2.55;1.60;;;24.50;98.90;;;;;;5037355;28;20049;-72
2022/08/07 11:59:28;;;;;;;1.90;1.70;;;24.40;98.00;;;;;;5027570;28;20037;-71
2022/08/07 12:02:20;;;;;;;3.03;1.73;;;24.30;97.90;;;;;;5049705;28;20059;-71
2022/08/07 12:05:32;;;;;;;3.38;1.88;;;24.30;98.00;;;;;;5022442;28;20045;-71
2022/08/07 12:08:13;;;;;;;3.20;1.80;;;24.30;96.90;;;;;;5042014;28;20392;-71
2022/08/07 12:10:55;;;;;;;1.85;1.75;;;24.40;96.30;;;;;;5021186;28;20615;-71
2022/08/07 12:13:41;;;;;;;2.15;1.60;;;24.50;96.90;;;;;;5023411;28;20045;-72
2022/08/07 12:16:34;;;;;;;2.40;1.70;;;24.70;97.20;;;;;;5028248;28;20044;-72
2022/08/07 12:19:32;;;;;;;3.15;1.50;;;24.90;96.70;;;;;;5028386;28;20056;-72
2022/08/07 12:22:16;;;;;;;2.85;1.65;;;25.10;96.40;;;;;;5025138;28;20045;-71
2022/08/07 12:27:55;;;;;;;3.22;1.60;;;25.40;93.60;;;;;;5022534;28;20041;-71
2022/08/07 12:30:33;;;;;;;2.00;1.73;;;25.40;94.60;;;;;;5020037;28;20063;-72
2022/08/07 12:33:11;;;;;;;3.47;1.70;;;25.40;93.50;;;;;;5017711;28;20052;-72
2022/08/07 12:35:46;;;;;;;5.65;1.60;;;25.50;94.00;;;;;;5022668;28;20042;-72
2022/08/07 12:38:20;;;;;;;3.95;2.58;;;25.60;93.70;;;;;;5023953;28;20045;-71
2022/08/07 12:40:53;;;;;;;2.35;1.38;;;25.80;93.30;;;;;;5022425;28;20496;-72
2022/08/07 12:43:29;;;;;;;3.55;1.45;;;25.90;92.70;;;;;;5023935;28;20044;-73
2022/08/07 12:46:02;;;;;;;1.70;1.60;;;26.00;91.50;;;;;;5018995;28;20567;-72
2022/08/07 12:48:57;;;;;;;3.08;1.40;;;26.10;91.20;;;;;;5023274;28;20077;-72
2022/08/07 12:51:45;;;;;;;1.90;1.48;;;26.10;90.50;;;;;;5027775;28;20034;-72
2022/08/07 12:54:28;;;;;;;2.25;1.70;;;26.10;91.40;;;;;;5025365;28;20067;-72
2022/08/07 12:57:03;;;;;;;2.10;1.90;;;26.20;91.10;;;;;;5020939;28;20046;-72
2022/08/07 12:59:36;;;;;;;3.95;1.42;;;26.20;91.00;;;;;;5022777;28;20061;-72
2022/08/07 13:02:47;;;;;;;;;;;26.20;90.40;;;;;;5026847;28;20051;-72
2022/08/07 13:05:37;;;;;;;2.08;1.55;;;26.20;90.10;;;;;;5005615;28;20379;-72
2022/08/07 13:08:32;;;;;;;2.42;1.50;;;26.40;90.00;;;;;;4999152;28;20042;-72
2022/08/07 13:11:29;;;;;;;1.65;1.23;;;26.50;90.70;;;;;;5017981;28;20056;-72
2022/08/07 13:14:21;;;;;;;2.88;1.33;;;26.60;89.30;;;;;;5022241;28;20077;-72
2022/08/07 13:17:01;;;;;;;1.67;1.42;;;26.60;87.40;;;;;;5021189;28;20045;-72
2022/08/07 13:19:38;;;;;;;1.73;1.60;;;26.70;90.20;;;;;;5023775;28;20399;-72
2022/08/07 13:22:31;;;;;;;1.30;1.20;;;26.70;87.40;;;;;;5018723;28;20056;-72
2022/08/07 13:25:03;;;;;;;;;;;26.70;90.60;;;;;;5025116;28;20060;-72
2022/08/07 13:27:43;;;;;;;4.35;1.48;;;26.80;87.30;;;;;;5027072;28;20009;-74
2022/08/07 13:30:15;;;;;;;2.63;1.20;;;27.00;86.20;;;;;;5003031;28;20046;-72
2022/08/07 13:33:09;;;;;;;1.70;1.58;;;27.00;86.30;;;;;;5017039;28;20063;-72
2022/08/07 13:35:40;;;;;;;;;;;27.20;81.70;;;;;;5024730;28;20381;-71
2022/08/07 13:38:12;;;;;;;2.25;1.35;;;27.20;85.40;;;;;;5020406;28;19947;-71
2022/08/07 13:41:01;;;;;;;2.40;1.30;;;27.30;84.40;;;;;;5020228;28;20060;-71
2022/08/07 13:43:40;;;;;;;2.08;1.33;;;27.40;83.70;;;;;;5019047;28;20060;-72
2022/08/07 13:46:14;;;;;;;2.53;1.58;;;27.50;80.60;;;;;;5023057;28;20041;-71
2022/08/07 13:48:49;;;;;;;2.30;1.60;;;27.50;80.50;;;;;;5018457;28;20057;-71
2022/08/07 13:51:25;;;;;;;2.92;1.27;;;27.70;82.40;;;;;;5022576;28;20497;-71
2022/08/07 13:54:01;;;;;;;2.28;1.52;;;27.80;82.70;;;;;;5023855;28;20030;-72